sensor_id;sensor_type;location;lat;lon;timestamp;P1;durP1;ratioP1;P2;durP2;ratioP2
8409;SDS011;4242;53.670;10.080;2022-08-21T00:04:21;4.83;;;2.53;;
8409;SDS011;4242;53.670;10.080;2022-08-21T00:06:48;2.87;;;2.40;;
8409;SDS011;4242;53.670;10.080;2022-08-21T00:09:14;3.83;;;2.20;;
8409;SDS011;4242;53.670;10.080;2022-08-21T00:11:40;3.67;;;2.37;;
8409;SDS011;4242;53.670;10.080;2022-08-21T00:14:06;8.70;;;2.70;;
8409;SDS011;4242;53.670;10.080;2022-08-21T00:16:33;3.50;;;2.70;;
8409;SDS011;4242;53.670;10.080;2022-08-21T00:18:59;3.87;;;2.40;;
8409;SDS011;4242;53.670;10.080;2022-08-21T00:21:25;2.50;;;2.30;;
8409;SDS011;4242;53.670;10.080;2022-08-21T00:23:51;2.53;;;2.33;;
8409;SDS011;4242;53.670;10.080;2022-08-21T00:26:17;3.90;;;2.37;;
8409;SDS011;4242;53.670;10.080;2022-08-21T00:28:43;3.23;;;2.07;;
8409;SDS011;4242;53.670;10.080;2022-08-21T00:31:10;3.20;;;2.20;;
8409;SDS011;4242;53.670;10.080;2022-08-21T00:33:37;3.60;;;2.00;;
8409;SDS011;4242;53.670;10.080;2022-08-21T00:36:03;2.70;;;2.10;;
8409;SDS011;4242;53.670;10.080;2022-08-21T00:38:29;2.57;;;2.33;;
8409;SDS011;4242;53.670;10.080;2022-08-21T00:40:57;6.27;;;2.67;;
8409;SDS011;4242;53.670;10.080;2022-08-21T00:43:33;3.57;;;2.53;;
8409;SDS011;4242;53.670;10.080;2022-08-21T00:46:00;2.47;;;2.17;;
8409;SDS011;4242;53.670;10.080;2022-08-21T00:48:26;3.40;;;2.27;;
8409;SDS011;4242;53.670;10.080;2022-08-21T00:50:55;3.23;;;2.60;;
8409;SDS011;4242;53.670;10.080;2022-08-21T00:53:23;3.77;;;2.80;;
8409;SDS011;4242;53.670;10.080;2022-08-21T00:55:49;5.10;;;2.63;;
8409;SDS011;4242;53.670;10.080;2022-08-21T00:58:15;4.67;;;2.40;;
8409;SDS011;4242;53.670;10.080;2022-08-21T01:00:44;3.07;;;2.60;;
8409;SDS011;4242;53.670;10.080;2022-08-21T01:03:13;5.17;;;2.57;;
8409;SDS011;4242;53.670;10.080;2022-08-21T01:05:40;5.83;;;3.30;;
8409;SDS011;4242;53.670;10.080;2022-08-21T01:08:07;5.47;;;3.10;;
8409;SDS011;4242;53.670;10.080;2022-08-21T01:10:34;4.43;;;3.10;;
8409;SDS011;4242;53.670;10.080;2022-08-21T01:13:00;5.70;;;3.00;;
8409;SDS011;4242;53.670;10.080;2022-08-21T01:15:27;3.40;;;2.83;;
8409;SDS011;4242;53.670;10.080;2022-08-21T01:17:55;3.60;;;2.60;;
8409;SDS011;4242;53.670;10.080;2022-08-21T01:20:22;3.40;;;2.27;;
8409;SDS011;4242;53.670;10.080;2022-08-21T01:22:48;3.17;;;2.47;;
8409;SDS011;4242;53.670;10.080;2022-08-21T01:25:14;4.10;;;2.40;;
8409;SDS011;4242;53.670;10.080;2022-08-21T01:27:41;4.40;;;2.87;;
8409;SDS011;4242;53.670;10.080;2022-08-21T01:30:09;6.00;;;2.20;;
8409;SDS011;4242;53.670;10.080;2022-08-21T01:32:36;3.67;;;2.60;;
8409;SDS011;4242;53.670;10.080;2022-08-21T01:35:03;2.87;;;2.57;;
8409;SDS011;4242;53.670;10.080;2022-08-21T01:37:29;4.30;;;2.37;;
8409;SDS011;4242;53.670;10.080;2022-08-21T01:39:55;2.93;;;2.57;;
8409;SDS011;4242;53.670;10.080;2022-08-21T01:42:21;2.43;;;2.27;;
8409;SDS011;4242;53.670;10.080;2022-08-21T01:44:48;5.40;;;2.53;;
8409;SDS011;4242;53.670;10.080;2022-08-21T01:47:15;2.13;;;2.03;;
8409;SDS011;4242;53.670;10.080;2022-08-21T01:49:41;2.93;;;2.03;;
8409;SDS011;4242;53.670;10.080;2022-08-21T01:52:08;2.30;;;2.10;;
8409;SDS011;4242;53.670;10.080;2022-08-21T01:54:34;2.13;;;1.97;;
8409;SDS011;4242;53.670;10.080;2022-08-21T01:57:01;3.03;;;2.27;;
8409;SDS011;4242;53.670;10.080;2022-08-21T01:59:27;2.20;;;2.03;;
8409;SDS011;4242;53.670;10.080;2022-08-21T02:01:53;2.57;;;2.13;;
8409;SDS011;4242;53.670;10.080;2022-08-21T02:04:19;4.47;;;2.30;;
8409;SDS011;4242;53.670;10.080;2022-08-21T02:06:46;3.00;;;2.10;;
8409;SDS011;4242;53.670;10.080;2022-08-21T02:09:12;4.23;;;2.33;;
8409;SDS011;4242;53.670;10.080;2022-08-21T02:11:39;2.30;;;2.10;;
8409;SDS011;4242;53.670;10.080;2022-08-21T02:14:05;3.23;;;2.30;;
8409;SDS011;4242;53.670;10.080;2022-08-21T02:16:31;2.80;;;2.17;;
8409;SDS011;4242;53.670;10.080;2022-08-21T02:18:58;1.93;;;1.83;;
8409;SDS011;4242;53.670;10.080;2022-08-21T02:21:24;2.30;;;2.10;;
8409;SDS011;4242;53.670;10.080;2022-08-21T02:23:50;2.67;;;2.20;;
8409;SDS011;4242;53.670;10.080;2022-08-21T02:26:16;3.10;;;2.13;;
8409;SDS011;4242;53.670;10.080;2022-08-21T02:28:43;5.03;;;2.67;;
8409;SDS011;4242;53.670;10.080;2022-08-21T02:31:09;3.33;;;2.30;;
8409;SDS011;4242;53.670;10.080;2022-08-21T02:33:35;2.73;;;2.10;;
8409;SDS011;4242;53.670;10.080;2022-08-21T02:36:02;2.40;;;2.20;;
8409;SDS011;4242;53.670;10.080;2022-08-21T02:38:30;3.33;;;2.10;;
8409;SDS011;4242;53.670;10.080;2022-08-21T02:40:58;3.10;;;2.57;;
8409;SDS011;4242;53.670;10.080;2022-08-21T02:43:24;4.23;;;2.50;;
8409;SDS011;4242;53.670;10.080;2022-08-21T02:45:51;2.73;;;2.10;;
8409;SDS011;4242;53.670;10.080;2022-08-21T02:48:19;3.77;;;2.30;;
8409;SDS011;4242;53.670;10.080;2022-08-21T02:50:46;3.47;;;2.60;;
8409;SDS011;4242;53.670;10.080;2022-08-21T02:53:13;2.60;;;2.40;;
8409;SDS011;4242;53.670;10.080;2022-08-21T02:55:41;3.10;;;2.63;;
8409;SDS011;4242;53.670;10.080;2022-08-21T02:58:07;3.57;;;2.60;;
8409;SDS011;4242;53.670;10.080;2022-08-21T03:00:33;3.30;;;2.37;;
8409;SDS011;4242;53.670;10.080;2022-08-21T03:03:00;3.90;;;2.47;;
8409;SDS011;4242;53.670;10.080;2022-08-21T03:05:27;2.97;;;2.40;;
8409;SDS011;4242;53.670;10.080;2022-08-21T03:07:53;4.27;;;2.93;;
8409;SDS011;4242;53.670;10.080;2022-08-21T03:10:20;2.53;;;2.33;;
8409;SDS011;4242;53.670;10.080;2022-08-21T03:12:47;2.77;;;2.30;;
8409;SDS011;4242;53.670;10.080;2022-08-21T03:15:14;2.47;;;2.20;;
8409;SDS011;4242;53.670;10.080;2022-08-21T03:17:42;2.80;;;2.23;;
8409;SDS011;4242;53.670;10.080;2022-08-21T03:20:08;3.00;;;2.60;;
8409;SDS011;4242;53.670;10.080;2022-08-21T03:22:34;2.90;;;2.60;;
8409;SDS011;4242;53.670;10.080;2022-08-21T03:25:00;3.40;;;2.40;;
8409;SDS011;4242;53.670;10.080;2022-08-21T03:27:27;2.63;;;2.40;;
8409;SDS011;4242;53.670;10.080;2022-08-21T03:29:53;2.73;;;2.40;;
8409;SDS011;4242;53.670;10.080;2022-08-21T03:32:19;2.90;;;2.30;;
8409;SDS011;4242;53.670;10.080;2022-08-21T03:34:45;2.60;;;2.30;;
8409;SDS011;4242;53.670;10.080;2022-08-21T03:37:12;4.23;;;2.43;;
8409;SDS011;4242;53.670;10.080;2022-08-21T03:39:38;6.10;;;2.30;;
8409;SDS011;4242;53.670;10.080;2022-08-21T03:42:04;3.50;;;2.60;;
8409;SDS011;4242;53.670;10.080;2022-08-21T03:44:31;2.90;;;2.60;;
8409;SDS011;4242;53.670;10.080;2022-08-21T03:46:57;2.47;;;2.27;;
8409;SDS011;4242;53.670;10.080;2022-08-21T03:49:24;2.37;;;2.07;;
8409;SDS011;4242;53.670;10.080;2022-08-21T03:51:50;2.60;;;2.40;;
8409;SDS011;4242;53.670;10.080;2022-08-21T03:54:16;5.33;;;2.50;;
8409;SDS011;4242;53.670;10.080;2022-08-21T03:56:42;2.80;;;2.20;;
8409;SDS011;4242;53.670;10.080;2022-08-21T03:59:08;2.83;;;2.53;;
8409;SDS011;4242;53.670;10.080;2022-08-21T04:01:35;2.67;;;2.23;;
8409;SDS011;4242;53.670;10.080;2022-08-21T04:04:01;2.60;;;2.40;;
8409;SDS011;4242;53.670;10.080;2022-08-21T04:06:27;2.93;;;2.20;;
8409;SDS011;4242;53.670;10.080;2022-08-21T04:08:53;4.90;;;2.80;;
8409;SDS011;4242;53.670;10.080;2022-08-21T04:11:20;4.47;;;2.57;;
8409;SDS011;4242;53.670;10.080;2022-08-21T04:13:46;4.17;;;2.30;;
8409;SDS011;4242;53.670;10.080;2022-08-21T04:16:13;2.60;;;2.40;;
8409;SDS011;4242;53.670;10.080;2022-08-21T04:18:39;3.17;;;2.40;;
8409;SDS011;4242;53.670;10.080;2022-08-21T04:21:05;5.17;;;2.47;;
8409;SDS011;4242;53.670;10.080;2022-08-21T04:23:33;2.83;;;2.60;;
8409;SDS011;4242;53.670;10.080;2022-08-21T04:25:59;3.47;;;2.43;;
8409;SDS011;4242;53.670;10.080;2022-08-21T04:28:26;3.20;;;2.60;;
8409;SDS011;4242;53.670;10.080;2022-08-21T04:30:53;3.57;;;2.80;;
8409;SDS011;4242;53.670;10.080;2022-08-21T04:33:19;2.70;;;2.50;;
8409;SDS011;4242;53.670;10.080;2022-08-21T04:35:45;2.83;;;2.63;;
8409;SDS011;4242;53.670;10.080;2022-08-21T04:38:11;2.73;;;2.43;;
8409;SDS011;4242;53.670;10.080;2022-08-21T04:40:37;3.67;;;2.50;;
8409;SDS011;4242;53.670;10.080;2022-08-21T04:43:05;7.13;;;3.00;;
8409;SDS011;4242;53.670;10.080;2022-08-21T04:47:58;5.67;;;2.80;;
8409;SDS011;4242;53.670;10.080;2022-08-21T04:50:26;2.50;;;2.30;;
8409;SDS011;4242;53.670;10.080;2022-08-21T04:52:53;5.53;;;2.53;;
8409;SDS011;4242;53.670;10.080;2022-08-21T04:55:20;5.13;;;2.07;;
8409;SDS011;4242;53.670;10.080;2022-08-21T04:57:46;3.70;;;2.27;;
8409;SDS011;4242;53.670;10.080;2022-08-21T05:00:12;5.10;;;2.50;;
8409;SDS011;4242;53.670;10.080;2022-08-21T05:02:39;3.60;;;2.50;;
8409;SDS011;4242;53.670;10.080;2022-08-21T05:05:06;3.20;;;2.40;;
8409;SDS011;4242;53.670;10.080;2022-08-21T05:07:32;4.53;;;2.40;;
8409;SDS011;4242;53.670;10.080;2022-08-21T05:09:59;2.37;;;2.27;;
8409;SDS011;4242;53.670;10.080;2022-08-21T05:12:25;3.13;;;2.20;;
8409;SDS011;4242;53.670;10.080;2022-08-21T05:14:51;4.50;;;2.63;;
8409;SDS011;4242;53.670;10.080;2022-08-21T05:17:17;2.53;;;2.33;;
8409;SDS011;4242;53.670;10.080;2022-08-21T05:19:43;3.97;;;2.50;;
8409;SDS011;4242;53.670;10.080;2022-08-21T05:22:09;5.37;;;2.67;;
8409;SDS011;4242;53.670;10.080;2022-08-21T05:24:35;2.60;;;2.40;;
8409;SDS011;4242;53.670;10.080;2022-08-21T05:27:02;3.70;;;2.50;;
8409;SDS011;4242;53.670;10.080;2022-08-21T05:29:29;2.67;;;2.30;;
8409;SDS011;4242;53.670;10.080;2022-08-21T05:31:56;4.60;;;2.47;;
8409;SDS011;4242;53.670;10.080;2022-08-21T05:34:22;4.00;;;2.73;;
8409;SDS011;4242;53.670;10.080;2022-08-21T05:36:48;3.57;;;2.47;;
8409;SDS011;4242;53.670;10.080;2022-08-21T05:39:14;4.23;;;2.60;;
8409;SDS011;4242;53.670;10.080;2022-08-21T05:41:40;2.53;;;2.30;;
8409;SDS011;4242;53.670;10.080;2022-08-21T05:44:07;4.43;;;2.70;;
8409;SDS011;4242;53.670;10.080;2022-08-21T05:46:33;3.80;;;2.90;;
8409;SDS011;4242;53.670;10.080;2022-08-21T05:48:59;5.83;;;2.87;;
8409;SDS011;4242;53.670;10.080;2022-08-21T05:51:24;4.23;;;2.90;;
8409;SDS011;4242;53.670;10.080;2022-08-21T05:53:50;5.17;;;2.50;;
8409;SDS011;4242;53.670;10.080;2022-08-21T05:56:16;4.13;;;3.07;;
8409;SDS011;4242;53.670;10.080;2022-08-21T05:58:43;5.33;;;2.90;;
8409;SDS011;4242;53.670;10.080;2022-08-21T06:01:09;4.50;;;3.00;;
8409;SDS011;4242;53.670;10.080;2022-08-21T06:03:36;2.97;;;2.50;;
8409;SDS011;4242;53.670;10.080;2022-08-21T06:06:03;3.73;;;2.90;;
8409;SDS011;4242;53.670;10.080;2022-08-21T06:08:29;6.77;;;2.97;;
8409;SDS011;4242;53.670;10.080;2022-08-21T06:10:56;3.77;;;2.90;;
8409;SDS011;4242;53.670;10.080;2022-08-21T06:13:22;4.50;;;3.10;;
8409;SDS011;4242;53.670;10.080;2022-08-21T06:15:49;4.13;;;2.90;;
8409;SDS011;4242;53.670;10.080;2022-08-21T06:18:15;7.23;;;3.10;;
8409;SDS011;4242;53.670;10.080;2022-08-21T06:20:41;4.57;;;2.50;;
8409;SDS011;4242;53.670;10.080;2022-08-21T06:23:07;4.47;;;2.90;;
8409;SDS011;4242;53.670;10.080;2022-08-21T06:25:33;3.00;;;2.47;;
8409;SDS011;4242;53.670;10.080;2022-08-21T06:28:00;4.17;;;2.60;;
8409;SDS011;4242;53.670;10.080;2022-08-21T06:30:27;4.17;;;2.90;;
8409;SDS011;4242;53.670;10.080;2022-08-21T06:32:53;4.83;;;2.50;;
8409;SDS011;4242;53.670;10.080;2022-08-21T06:35:19;4.37;;;2.50;;
8409;SDS011;4242;53.670;10.080;2022-08-21T06:37:45;4.07;;;2.20;;
8409;SDS011;4242;53.670;10.080;2022-08-21T06:40:11;3.07;;;2.40;;
8409;SDS011;4242;53.670;10.080;2022-08-21T06:42:37;5.00;;;2.50;;
8409;SDS011;4242;53.670;10.080;2022-08-21T06:45:03;7.27;;;2.53;;
8409;SDS011;4242;53.670;10.080;2022-08-21T06:47:29;3.70;;;2.13;;
8409;SDS011;4242;53.670;10.080;2022-08-21T06:49:56;4.37;;;2.40;;
8409;SDS011;4242;53.670;10.080;2022-08-21T06:52:22;3.77;;;2.10;;
8409;SDS011;4242;53.670;10.080;2022-08-21T06:54:48;4.17;;;2.20;;
8409;SDS011;4242;53.670;10.080;2022-08-21T06:57:15;3.40;;;2.00;;
8409;SDS011;4242;53.670;10.080;2022-08-21T06:59:41;3.03;;;2.20;;
8409;SDS011;4242;53.670;10.080;2022-08-21T07:02:07;4.83;;;2.17;;
8409;SDS011;4242;53.670;10.080;2022-08-21T07:04:33;3.87;;;2.30;;
8409;SDS011;4242;53.670;10.080;2022-08-21T07:06:59;2.80;;;2.07;;
8409;SDS011;4242;53.670;10.080;2022-08-21T07:09:25;2.90;;;1.93;;
8409;SDS011;4242;53.670;10.080;2022-08-21T07:11:52;2.37;;;1.90;;
8409;SDS011;4242;53.670;10.080;2022-08-21T07:14:19;4.60;;;2.40;;
8409;SDS011;4242;53.670;10.080;2022-08-21T07:16:46;3.37;;;1.83;;
8409;SDS011;4242;53.670;10.080;2022-08-21T07:19:12;4.13;;;2.10;;
8409;SDS011;4242;53.670;10.080;2022-08-21T07:21:38;3.50;;;2.00;;
8409;SDS011;4242;53.670;10.080;2022-08-21T07:24:04;4.33;;;1.87;;
8409;SDS011;4242;53.670;10.080;2022-08-21T07:26:30;4.93;;;2.23;;
8409;SDS011;4242;53.670;10.080;2022-08-21T07:28:56;4.07;;;2.13;;
8409;SDS011;4242;53.670;10.080;2022-08-21T07:31:22;4.57;;;1.73;;
8409;SDS011;4242;53.670;10.080;2022-08-21T07:33:49;2.17;;;1.60;;
8409;SDS011;4242;53.670;10.080;2022-08-21T07:36:15;3.07;;;1.77;;
8409;SDS011;4242;53.670;10.080;2022-08-21T07:38:42;3.00;;;1.80;;
8409;SDS011;4242;53.670;10.080;2022-08-21T07:41:15;4.87;;;1.70;;
8409;SDS011;4242;53.670;10.080;2022-08-21T07:43:41;8.40;;;2.23;;
8409;SDS011;4242;53.670;10.080;2022-08-21T07:46:07;8.23;;;2.33;;
8409;SDS011;4242;53.670;10.080;2022-08-21T07:48:33;3.10;;;1.87;;
8409;SDS011;4242;53.670;10.080;2022-08-21T07:51:00;2.20;;;1.63;;
8409;SDS011;4242;53.670;10.080;2022-08-21T07:53:28;3.23;;;1.80;;
8409;SDS011;4242;53.670;10.080;2022-08-21T07:55:56;3.37;;;1.83;;
8409;SDS011;4242;53.670;10.080;2022-08-21T07:58:22;2.53;;;1.77;;
8409;SDS011;4242;53.670;10.080;2022-08-21T08:00:48;4.20;;;2.13;;
8409;SDS011;4242;53.670;10.080;2022-08-21T08:03:14;2.97;;;1.60;;
8409;SDS011;4242;53.670;10.080;2022-08-21T08:05:40;4.27;;;1.77;;
8409;SDS011;4242;53.670;10.080;2022-08-21T08:08:07;4.97;;;2.00;;
8409;SDS011;4242;53.670;10.080;2022-08-21T08:10:33;4.50;;;2.10;;
8409;SDS011;4242;53.670;10.080;2022-08-21T08:12:59;3.57;;;2.00;;
8409;SDS011;4242;53.670;10.080;2022-08-21T08:15:25;5.83;;;1.80;;
8409;SDS011;4242;53.670;10.080;2022-08-21T08:17:52;3.40;;;1.73;;
8409;SDS011;4242;53.670;10.080;2022-08-21T08:20:19;3.67;;;2.10;;
8409;SDS011;4242;53.670;10.080;2022-08-21T08:22:46;3.13;;;2.00;;
8409;SDS011;4242;53.670;10.080;2022-08-21T08:25:13;3.53;;;1.83;;
8409;SDS011;4242;53.670;10.080;2022-08-21T08:27:39;4.03;;;1.97;;
8409;SDS011;4242;53.670;10.080;2022-08-21T08:30:06;5.17;;;2.13;;
8409;SDS011;4242;53.670;10.080;2022-08-21T08:32:32;4.97;;;2.07;;
8409;SDS011;4242;53.670;10.080;2022-08-21T08:34:58;6.83;;;2.23;;
8409;SDS011;4242;53.670;10.080;2022-08-21T08:37:24;4.10;;;1.80;;
8409;SDS011;4242;53.670;10.080;2022-08-21T08:39:50;6.40;;;1.83;;
8409;SDS011;4242;53.670;10.080;2022-08-21T08:44:45;5.37;;;2.10;;
8409;SDS011;4242;53.670;10.080;2022-08-21T08:47:13;5.87;;;2.10;;
8409;SDS011;4242;53.670;10.080;2022-08-21T08:49:40;4.00;;;1.97;;
8409;SDS011;4242;53.670;10.080;2022-08-21T08:54:42;2.53;;;1.87;;
8409;SDS011;4242;53.670;10.080;2022-08-21T08:57:10;5.45;;;2.38;;
8409;SDS011;4242;53.670;10.080;2022-08-21T08:59:41;3.77;;;1.83;;
8409;SDS011;4242;53.670;10.080;2022-08-21T09:02:09;5.93;;;2.30;;
8409;SDS011;4242;53.670;10.080;2022-08-21T09:04:36;3.97;;;1.80;;
8409;SDS011;4242;53.670;10.080;2022-08-21T09:25:22;10.55;;;3.03;;
8409;SDS011;4242;53.670;10.080;2022-08-21T09:27:48;7.60;;;2.40;;
8409;SDS011;4242;53.670;10.080;2022-08-21T09:30:15;6.75;;;1.90;;
8409;SDS011;4242;53.670;10.080;2022-08-21T09:32:42;6.47;;;2.08;;
8409;SDS011;4242;53.670;10.080;2022-08-21T09:35:09;4.88;;;1.77;;
8409;SDS011;4242;53.670;10.080;2022-08-21T09:40:29;5.50;;;1.90;;
8409;SDS011;4242;53.670;10.080;2022-08-21T09:43:00;4.95;;;1.90;;
8409;SDS011;4242;53.670;10.080;2022-08-21T09:45:26;7.05;;;2.20;;
8409;SDS011;4242;53.670;10.080;2022-08-21T09:47:52;3.67;;;1.67;;
8409;SDS011;4242;53.670;10.080;2022-08-21T09:50:27;5.93;;;1.90;;
8409;SDS011;4242;53.670;10.080;2022-08-21T09:52:57;4.18;;;1.83;;
8409;SDS011;4242;53.670;10.080;2022-08-21T09:55:38;6.30;;;2.25;;
8409;SDS011;4242;53.670;10.080;2022-08-21T09:58:29;3.15;;;1.75;;
8409;SDS011;4242;53.670;10.080;2022-08-21T10:00:56;6.70;;;2.08;;
8409;SDS011;4242;53.670;10.080;2022-08-21T10:03:23;4.78;;;1.90;;
8409;SDS011;4242;53.670;10.080;2022-08-21T10:06:00;3.25;;;1.63;;
8409;SDS011;4242;53.670;10.080;2022-08-21T10:08:30;9.13;;;2.20;;
8409;SDS011;4242;53.670;10.080;2022-08-21T10:10:57;5.82;;;2.13;;
8409;SDS011;4242;53.670;10.080;2022-08-21T10:13:33;7.18;;;2.25;;
8409;SDS011;4242;53.670;10.080;2022-08-21T10:20:54;4.85;;;2.10;;
8409;SDS011;4242;53.670;10.080;2022-08-21T10:31:00;3.78;;;2.00;;
8409;SDS011;4242;53.670;10.080;2022-08-21T10:33:46;3.75;;;2.00;;
8409;SDS011;4242;53.670;10.080;2022-08-21T10:36:30;4.57;;;1.90;;
8409;SDS011;4242;53.670;10.080;2022-08-21T10:49:07;8.35;;;2.60;;
8409;SDS011;4242;53.670;10.080;2022-08-21T10:51:46;5.10;;;1.80;;
8409;SDS011;4242;53.670;10.080;2022-08-21T10:56:42;3.50;;;1.75;;
8409;SDS011;4242;53.670;10.080;2022-08-21T11:04:16;6.20;;;1.95;;
8409;SDS011;4242;53.670;10.080;2022-08-21T11:06:49;5.30;;;2.10;;
8409;SDS011;4242;53.670;10.080;2022-08-21T11:09:19;6.32;;;2.10;;
8409;SDS011;4242;53.670;10.080;2022-08-21T11:14:32;4.20;;;1.77;;
8409;SDS011;4242;53.670;10.080;2022-08-21T11:17:02;6.18;;;2.28;;
8409;SDS011;4242;53.670;10.080;2022-08-21T11:19:33;4.07;;;1.90;;
8409;SDS011;4242;53.670;10.080;2022-08-21T11:22:05;3.80;;;1.70;;
8409;SDS011;4242;53.670;10.080;2022-08-21T11:24:54;2.80;;;1.77;;
8409;SDS011;4242;53.670;10.080;2022-08-21T11:29:55;5.40;;;2.45;;
8409;SDS011;4242;53.670;10.080;2022-08-21T11:50:29;3.00;;;1.60;;
8409;SDS011;4242;53.670;10.080;2022-08-21T11:52:57;5.40;;;1.70;;
8409;SDS011;4242;53.670;10.080;2022-08-21T11:55:26;2.63;;;1.67;;
8409;SDS011;4242;53.670;10.080;2022-08-21T11:58:04;3.22;;;2.72;;
8409;SDS011;4242;53.670;10.080;2022-08-21T12:00:36;12.23;;;2.65;;
8409;SDS011;4242;53.670;10.080;2022-08-21T12:03:15;3.25;;;1.60;;
8409;SDS011;4242;53.670;10.080;2022-08-21T12:05:44;8.55;;;2.20;;
8409;SDS011;4242;53.670;10.080;2022-08-21T12:11:00;4.18;;;1.92;;
8409;SDS011;4242;53.670;10.080;2022-08-21T12:13:30;5.07;;;2.10;;
8409;SDS011;4242;53.670;10.080;2022-08-21T12:16:13;3.25;;;1.48;;
8409;SDS011;4242;53.670;10.080;2022-08-21T12:18:40;1.65;;;1.50;;
8409;SDS011;4242;53.670;10.080;2022-08-21T12:23:59;2.35;;;1.70;;
8409;SDS011;4242;53.670;10.080;2022-08-21T12:26:26;2.45;;;1.40;;
8409;SDS011;4242;53.670;10.080;2022-08-21T12:31:31;2.28;;;1.38;;
8409;SDS011;4242;53.670;10.080;2022-08-21T12:33:58;2.65;;;1.63;;
8409;SDS011;4242;53.670;10.080;2022-08-21T12:36:27;8.20;;;2.05;;
8409;SDS011;4242;53.670;10.080;2022-08-21T12:38:56;1.77;;;1.40;;
8409;SDS011;4242;53.670;10.080;2022-08-21T12:41:27;2.90;;;1.70;;
8409;SDS011;4242;53.670;10.080;2022-08-21T12:43:58;2.45;;;1.60;;
8409;SDS011;4242;53.670;10.080;2022-08-21T12:46:32;11.00;;;2.17;;
8409;SDS011;4242;53.670;10.080;2022-08-21T12:54:29;4.05;;;1.92;;
8409;SDS011;4242;53.670;10.080;2022-08-21T12:56:57;3.47;;;1.40;;
8409;SDS011;4242;53.670;10.080;2022-08-21T12:59:23;31.52;;;4.22;;
8409;SDS011;4242;53.670;10.080;2022-08-21T13:01:50;3.38;;;1.45;;
8409;SDS011;4242;53.670;10.080;2022-08-21T13:04:20;7.70;;;1.90;;
8409;SDS011;4242;53.670;10.080;2022-08-21T13:06:49;4.57;;;1.50;;
8409;SDS011;4242;53.670;10.080;2022-08-21T13:09:17;2.50;;;1.40;;
8409;SDS011;4242;53.670;10.080;2022-08-21T13:11:45;1.70;;;1.25;;
8409;SDS011;4242;53.670;10.080;2022-08-21T13:16:59;1.67;;;1.30;;
8409;SDS011;4242;53.670;10.080;2022-08-21T13:19:25;2.30;;;1.45;;
8409;SDS011;4242;53.670;10.080;2022-08-21T13:21:52;2.90;;;2.03;;
8409;SDS011;4242;53.670;10.080;2022-08-21T13:24:23;3.50;;;1.55;;
8409;SDS011;4242;53.670;10.080;2022-08-21T13:26:49;5.35;;;1.80;;
8409;SDS011;4242;53.670;10.080;2022-08-21T13:29:16;11.70;;;2.92;;
8409;SDS011;4242;53.670;10.080;2022-08-21T13:31:47;17.30;;;2.30;;
8409;SDS011;4242;53.670;10.080;2022-08-21T13:34:13;2.13;;;1.20;;
8409;SDS011;4242;53.670;10.080;2022-08-21T13:36:41;4.30;;;1.98;;
8409;SDS011;4242;53.670;10.080;2022-08-21T13:39:08;7.45;;;1.70;;
8409;SDS011;4242;53.670;10.080;2022-08-21T13:41:36;2.08;;;1.08;;
8409;SDS011;4242;53.670;10.080;2022-08-21T13:44:04;1.90;;;1.15;;
8409;SDS011;4242;53.670;10.080;2022-08-21T13:46:31;1.60;;;1.20;;
8409;SDS011;4242;53.670;10.080;2022-08-21T13:48:58;1.60;;;0.98;;
8409;SDS011;4242;53.670;10.080;2022-08-21T13:51:25;2.58;;;1.23;;
8409;SDS011;4242;53.670;10.080;2022-08-21T13:53:51;1.58;;;1.25;;
8409;SDS011;4242;53.670;10.080;2022-08-21T13:58:53;1.05;;;0.98;;
8409;SDS011;4242;53.670;10.080;2022-08-21T14:01:30;1.38;;;1.00;;
8409;SDS011;4242;53.670;10.080;2022-08-21T14:04:01;4.30;;;0.90;;
8409;SDS011;4242;53.670;10.080;2022-08-21T14:06:28;2.38;;;1.10;;
8409;SDS011;4242;53.670;10.080;2022-08-21T14:09:03;1.20;;;0.98;;
8409;SDS011;4242;53.670;10.080;2022-08-21T14:11:33;2.47;;;1.13;;
8409;SDS011;4242;53.670;10.080;2022-08-21T14:14:33;1.52;;;1.02;;
8409;SDS011;4242;53.670;10.080;2022-08-21T14:16:56;1.38;;;1.08;;
8409;SDS011;4242;53.670;10.080;2022-08-21T14:19:24;1.05;;;1.02;;
8409;SDS011;4242;53.670;10.080;2022-08-21T14:21:50;1.48;;;1.20;;
8409;SDS011;4242;53.670;10.080;2022-08-21T14:26:50;1.38;;;0.93;;
8409;SDS011;4242;53.670;10.080;2022-08-21T14:29:16;3.42;;;1.38;;
8409;SDS011;4242;53.670;10.080;2022-08-21T14:31:43;1.42;;;1.10;;
8409;SDS011;4242;53.670;10.080;2022-08-21T14:34:14;1.98;;;0.95;;
8409;SDS011;4242;53.670;10.080;2022-08-21T14:36:42;0.80;;;0.80;;
8409;SDS011;4242;53.670;10.080;2022-08-21T14:39:08;1.00;;;0.95;;
8409;SDS011;4242;53.670;10.080;2022-08-21T14:41:34;2.40;;;0.90;;
8409;SDS011;4242;53.670;10.080;2022-08-21T14:44:01;1.92;;;1.27;;
8409;SDS011;4242;53.670;10.080;2022-08-21T14:46:29;2.05;;;1.30;;
8409;SDS011;4242;53.670;10.080;2022-08-21T14:48:56;2.72;;;0.70;;
8409;SDS011;4242;53.670;10.080;2022-08-21T14:51:23;1.25;;;0.90;;
8409;SDS011;4242;53.670;10.080;2022-08-21T14:53:49;0.82;;;0.80;;
8409;SDS011;4242;53.670;10.080;2022-08-21T14:56:15;1.48;;;0.90;;
8409;SDS011;4242;53.670;10.080;2022-08-21T14:58:42;0.88;;;0.70;;
8409;SDS011;4242;53.670;10.080;2022-08-21T15:01:10;0.88;;;0.80;;
8409;SDS011;4242;53.670;10.080;2022-08-21T15:03:37;0.95;;;0.90;;
8409;SDS011;4242;53.670;10.080;2022-08-21T15:06:04;1.73;;;1.60;;
8409;SDS011;4242;53.670;10.080;2022-08-21T15:08:30;0.70;;;0.70;;
8409;SDS011;4242;53.670;10.080;2022-08-21T15:10:57;1.10;;;1.10;;
8409;SDS011;4242;53.670;10.080;2022-08-21T15:13:23;1.17;;;0.93;;
8409;SDS011;4242;53.670;10.080;2022-08-21T15:15:51;0.70;;;0.70;;
8409;SDS011;4242;53.670;10.080;2022-08-21T15:18:21;2.78;;;2.28;;
8409;SDS011;4242;53.670;10.080;2022-08-21T15:20:47;1.63;;;1.10;;
8409;SDS011;4242;53.670;10.080;2022-08-21T15:23:13;0.95;;;0.85;;
8409;SDS011;4242;53.670;10.080;2022-08-21T15:25:40;0.82;;;0.60;;
8409;SDS011;4242;53.670;10.080;2022-08-21T15:28:07;0.75;;;0.75;;
8409;SDS011;4242;53.670;10.080;2022-08-21T15:30:33;1.52;;;0.82;;
8409;SDS011;4242;53.670;10.080;2022-08-21T15:33:00;1.33;;;0.70;;
8409;SDS011;4242;53.670;10.080;2022-08-21T15:35:25;1.15;;;1.05;;
8409;SDS011;4242;53.670;10.080;2022-08-21T15:37:52;2.22;;;1.20;;
8409;SDS011;4242;53.670;10.080;2022-08-21T15:40:18;1.42;;;0.98;;
8409;SDS011;4242;53.670;10.080;2022-08-21T15:42:44;0.70;;;0.70;;
8409;SDS011;4242;53.670;10.080;2022-08-21T15:45:11;0.80;;;0.80;;
8409;SDS011;4242;53.670;10.080;2022-08-21T15:47:38;2.60;;;0.90;;
8409;SDS011;4242;53.670;10.080;2022-08-21T15:50:06;0.73;;;0.70;;
8409;SDS011;4242;53.670;10.080;2022-08-21T15:52:32;0.95;;;0.77;;
8409;SDS011;4242;53.670;10.080;2022-08-21T15:54:59;0.88;;;0.75;;
8409;SDS011;4242;53.670;10.080;2022-08-21T15:57:25;0.95;;;0.90;;
8409;SDS011;4242;53.670;10.080;2022-08-21T15:59:56;1.67;;;0.82;;
8409;SDS011;4242;53.670;10.080;2022-08-21T16:02:23;1.52;;;1.42;;
8409;SDS011;4242;53.670;10.080;2022-08-21T16:04:49;1.58;;;0.90;;
8409;SDS011;4242;53.670;10.080;2022-08-21T16:07:16;1.48;;;1.00;;
8409;SDS011;4242;53.670;10.080;2022-08-21T16:09:42;1.13;;;0.80;;
8409;SDS011;4242;53.670;10.080;2022-08-21T16:12:09;1.50;;;1.13;;
8409;SDS011;4242;53.670;10.080;2022-08-21T16:14:36;7.90;;;6.82;;
8409;SDS011;4242;53.670;10.080;2022-08-21T16:17:06;1.63;;;0.95;;
8409;SDS011;4242;53.670;10.080;2022-08-21T16:19:32;0.80;;;0.80;;
8409;SDS011;4242;53.670;10.080;2022-08-21T16:21:59;2.65;;;0.90;;
8409;SDS011;4242;53.670;10.080;2022-08-21T16:24:25;1.13;;;0.88;;
8409;SDS011;4242;53.670;10.080;2022-08-21T16:26:51;2.80;;;1.10;;
8409;SDS011;4242;53.670;10.080;2022-08-21T16:29:17;1.23;;;0.75;;
8409;SDS011;4242;53.670;10.080;2022-08-21T16:31:43;2.90;;;1.13;;
8409;SDS011;4242;53.670;10.080;2022-08-21T16:34:11;1.08;;;0.98;;
8409;SDS011;4242;53.670;10.080;2022-08-21T16:36:40;2.45;;;1.00;;
8409;SDS011;4242;53.670;10.080;2022-08-21T16:39:06;1.55;;;1.05;;
8409;SDS011;4242;53.670;10.080;2022-08-21T16:41:33;0.80;;;0.80;;
8409;SDS011;4242;53.670;10.080;2022-08-21T16:43:59;1.02;;;0.90;;
8409;SDS011;4242;53.670;10.080;2022-08-21T16:46:26;1.85;;;1.20;;
8409;SDS011;4242;53.670;10.080;2022-08-21T16:48:52;1.20;;;1.00;;